sensor_id;sensor_type;location;lat;lon;timestamp;P1;durP1;ratioP1;P2;durP2;ratioP2
20832;SDS011;56075;51.264;7.150;2023-07-08T00:01:04;5.60;;;3.22;;
20832;SDS011;56075;51.264;7.150;2023-07-08T00:03:39;6.85;;;3.10;;
20832;SDS011;56075;51.264;7.150;2023-07-08T00:06:11;6.38;;;3.22;;
20832;SDS011;56075;51.264;7.150;2023-07-08T00:08:48;5.78;;;2.92;;
20832;SDS011;56075;51.264;7.150;2023-07-08T00:11:20;5.68;;;2.72;;
20832;SDS011;56075;51.264;7.150;2023-07-08T00:13:51;5.10;;;2.67;;
20832;SDS011;56075;51.264;7.150;2023-07-08T00:16:23;6.60;;;2.53;;
20832;SDS011;56075;51.264;7.150;2023-07-08T00:18:54;7.63;;;2.65;;
20832;SDS011;56075;51.264;7.150;2023-07-08T00:21:25;5.00;;;2.38;;
20832;SDS011;56075;51.264;7.150;2023-07-08T00:23:56;4.45;;;2.40;;
20832;SDS011;56075;51.264;7.150;2023-07-08T00:26:29;5.32;;;2.50;;
20832;SDS011;56075;51.264;7.150;2023-07-08T00:29:10;5.63;;;2.60;;
20832;SDS011;56075;51.264;7.150;2023-07-08T00:31:42;4.38;;;2.63;;
20832;SDS011;56075;51.264;7.150;2023-07-08T00:34:13;6.60;;;2.85;;
20832;SDS011;56075;51.264;7.150;2023-07-08T00:36:46;4.95;;;2.60;;
20832;SDS011;56075;51.264;7.150;2023-07-08T00:39:17;5.03;;;2.22;;
20832;SDS011;56075;51.264;7.150;2023-07-08T00:41:48;7.40;;;2.60;;
20832;SDS011;56075;51.264;7.150;2023-07-08T00:44:21;4.22;;;2.28;;
20832;SDS011;56075;51.264;7.150;2023-07-08T00:46:55;4.18;;;2.22;;
20832;SDS011;56075;51.264;7.150;2023-07-08T00:49:34;3.75;;;2.33;;
20832;SDS011;56075;51.264;7.150;2023-07-08T00:52:18;4.93;;;2.88;;
20832;SDS011;56075;51.264;7.150;2023-07-08T00:54:53;4.93;;;2.63;;
20832;SDS011;56075;51.264;7.150;2023-07-08T00:57:26;4.45;;;2.38;;
20832;SDS011;56075;51.264;7.150;2023-07-08T01:00:06;5.38;;;2.65;;
20832;SDS011;56075;51.264;7.150;2023-07-08T01:02:46;3.28;;;2.40;;
20832;SDS011;56075;51.264;7.150;2023-07-08T01:05:23;4.65;;;2.60;;
20832;SDS011;56075;51.264;7.150;2023-07-08T01:07:59;7.63;;;2.67;;
20832;SDS011;56075;51.264;7.150;2023-07-08T01:10:37;5.63;;;2.80;;
20832;SDS011;56075;51.264;7.150;2023-07-08T01:13:13;5.43;;;2.83;;
20832;SDS011;56075;51.264;7.150;2023-07-08T01:15:46;6.35;;;2.90;;
20832;SDS011;56075;51.264;7.150;2023-07-08T01:18:19;3.75;;;2.63;;
20832;SDS011;56075;51.264;7.150;2023-07-08T01:20:52;3.80;;;2.58;;
20832;SDS011;56075;51.264;7.150;2023-07-08T01:23:25;6.18;;;2.90;;
20832;SDS011;56075;51.264;7.150;2023-07-08T01:25:57;4.55;;;2.53;;
20832;SDS011;56075;51.264;7.150;2023-07-08T01:28:30;6.15;;;2.45;;
20832;SDS011;56075;51.264;7.150;2023-07-08T01:31:01;4.75;;;2.58;;
20832;SDS011;56075;51.264;7.150;2023-07-08T01:33:33;6.43;;;2.70;;
20832;SDS011;56075;51.264;7.150;2023-07-08T01:36:04;4.57;;;2.75;;
20832;SDS011;56075;51.264;7.150;2023-07-08T01:38:36;5.15;;;2.60;;
20832;SDS011;56075;51.264;7.150;2023-07-08T01:41:13;6.22;;;2.63;;
20832;SDS011;56075;51.264;7.150;2023-07-08T01:43:45;6.03;;;2.92;;
20832;SDS011;56075;51.264;7.150;2023-07-08T01:46:18;7.35;;;2.58;;
20832;SDS011;56075;51.264;7.150;2023-07-08T01:48:57;5.15;;;2.90;;
20832;SDS011;56075;51.264;7.150;2023-07-08T01:51:31;6.55;;;3.00;;
20832;SDS011;56075;51.264;7.150;2023-07-08T01:54:02;3.97;;;2.50;;
20832;SDS011;56075;51.264;7.150;2023-07-08T01:56:33;4.35;;;2.40;;
20832;SDS011;56075;51.264;7.150;2023-07-08T01:59:04;4.80;;;2.60;;
20832;SDS011;56075;51.264;7.150;2023-07-08T02:01:35;5.88;;;2.95;;
20832;SDS011;56075;51.264;7.150;2023-07-08T02:04:06;5.55;;;3.05;;
20832;SDS011;56075;51.264;7.150;2023-07-08T02:06:38;5.78;;;2.80;;
20832;SDS011;56075;51.264;7.150;2023-07-08T02:09:11;7.03;;;3.08;;
20832;SDS011;56075;51.264;7.150;2023-07-08T02:11:42;6.90;;;3.13;;
20832;SDS011;56075;51.264;7.150;2023-07-08T02:14:13;4.75;;;2.67;;
20832;SDS011;56075;51.264;7.150;2023-07-08T02:16:45;5.03;;;2.65;;
20832;SDS011;56075;51.264;7.150;2023-07-08T02:19:16;5.95;;;2.85;;
20832;SDS011;56075;51.264;7.150;2023-07-08T02:21:47;5.20;;;2.92;;
20832;SDS011;56075;51.264;7.150;2023-07-08T02:24:18;7.82;;;2.85;;
20832;SDS011;56075;51.264;7.150;2023-07-08T02:26:49;7.32;;;3.05;;
20832;SDS011;56075;51.264;7.150;2023-07-08T02:29:20;6.50;;;2.92;;
20832;SDS011;56075;51.264;7.150;2023-07-08T02:31:52;5.60;;;3.03;;
20832;SDS011;56075;51.264;7.150;2023-07-08T02:34:23;4.85;;;2.80;;
20832;SDS011;56075;51.264;7.150;2023-07-08T02:36:54;6.75;;;3.20;;
20832;SDS011;56075;51.264;7.150;2023-07-08T02:39:26;8.55;;;3.13;;
20832;SDS011;56075;51.264;7.150;2023-07-08T02:41:58;5.97;;;2.80;;
20832;SDS011;56075;51.264;7.150;2023-07-08T02:44:29;4.30;;;2.53;;
20832;SDS011;56075;51.264;7.150;2023-07-08T02:47:00;6.47;;;2.75;;
20832;SDS011;56075;51.264;7.150;2023-07-08T02:49:31;4.22;;;2.70;;
20832;SDS011;56075;51.264;7.150;2023-07-08T02:52:02;6.32;;;2.78;;
20832;SDS011;56075;51.264;7.150;2023-07-08T02:54:34;6.10;;;2.92;;
20832;SDS011;56075;51.264;7.150;2023-07-08T02:57:12;4.10;;;2.50;;
20832;SDS011;56075;51.264;7.150;2023-07-08T03:00:12;4.88;;;2.80;;
20832;SDS011;56075;51.264;7.150;2023-07-08T03:02:56;5.18;;;3.05;;
20832;SDS011;56075;51.264;7.150;2023-07-08T03:06:30;8.20;;;3.60;;
20832;SDS011;56075;51.264;7.150;2023-07-08T03:14:19;7.00;;;2.88;;
20832;SDS011;56075;51.264;7.150;2023-07-08T03:17:58;7.35;;;3.00;;
20832;SDS011;56075;51.264;7.150;2023-07-08T03:25:00;6.18;;;2.90;;
20832;SDS011;56075;51.264;7.150;2023-07-08T03:28:06;6.28;;;3.05;;
20832;SDS011;56075;51.264;7.150;2023-07-08T03:31:29;5.72;;;3.10;;
20832;SDS011;56075;51.264;7.150;2023-07-08T03:38:47;5.95;;;3.25;;
20832;SDS011;56075;51.264;7.150;2023-07-08T03:42:45;6.28;;;2.90;;
20832;SDS011;56075;51.264;7.150;2023-07-08T03:45:51;5.35;;;2.90;;
20832;SDS011;56075;51.264;7.150;2023-07-08T03:48:38;6.10;;;3.13;;
20832;SDS011;56075;51.264;7.150;2023-07-08T03:51:17;6.13;;;3.10;;
20832;SDS011;56075;51.264;7.150;2023-07-08T03:54:05;5.45;;;2.80;;
20832;SDS011;56075;51.264;7.150;2023-07-08T03:59:51;5.93;;;3.20;;
20832;SDS011;56075;51.264;7.150;2023-07-08T04:02:48;6.65;;;3.42;;
20832;SDS011;56075;51.264;7.150;2023-07-08T04:05:34;6.32;;;3.03;;
20832;SDS011;56075;51.264;7.150;2023-07-08T04:08:09;7.28;;;3.30;;
20832;SDS011;56075;51.264;7.150;2023-07-08T04:10:43;5.55;;;2.95;;
20832;SDS011;56075;51.264;7.150;2023-07-08T04:13:15;5.72;;;2.90;;
20832;SDS011;56075;51.264;7.150;2023-07-08T04:15:51;5.70;;;3.03;;
20832;SDS011;56075;51.264;7.150;2023-07-08T04:18:52;6.22;;;3.05;;
20832;SDS011;56075;51.264;7.150;2023-07-08T04:21:27;6.10;;;3.05;;
20832;SDS011;56075;51.264;7.150;2023-07-08T04:24:16;7.00;;;3.33;;
20832;SDS011;56075;51.264;7.150;2023-07-08T04:26:49;7.57;;;3.47;;
20832;SDS011;56075;51.264;7.150;2023-07-08T04:33:52;7.38;;;3.47;;
20832;SDS011;56075;51.264;7.150;2023-07-08T04:36:30;9.73;;;4.00;;
20832;SDS011;56075;51.264;7.150;2023-07-08T04:39:08;7.50;;;3.70;;
20832;SDS011;56075;51.264;7.150;2023-07-08T04:41:41;9.68;;;4.22;;
20832;SDS011;56075;51.264;7.150;2023-07-08T05:55:48;6.88;;;3.65;;
20832;SDS011;56075;51.264;7.150;2023-07-08T07:12:46;8.35;;;4.05;;
20832;SDS011;56075;51.264;7.150;2023-07-08T07:15:38;8.18;;;4.03;;
20832;SDS011;56075;51.264;7.150;2023-07-08T07:30:34;9.20;;;4.47;;
20832;SDS011;56075;51.264;7.150;2023-07-08T07:33:56;9.80;;;4.40;;
20832;SDS011;56075;51.264;7.150;2023-07-08T07:36:44;9.35;;;4.20;;
20832;SDS011;56075;51.264;7.150;2023-07-08T07:39:18;9.13;;;4.30;;
20832;SDS011;56075;51.264;7.150;2023-07-08T07:41:52;8.77;;;4.10;;
20832;SDS011;56075;51.264;7.150;2023-07-08T07:44:24;7.47;;;4.03;;
20832;SDS011;56075;51.264;7.150;2023-07-08T07:47:02;6.72;;;4.22;;
20832;SDS011;56075;51.264;7.150;2023-07-08T07:49:50;8.68;;;4.03;;
20832;SDS011;56075;51.264;7.150;2023-07-08T07:52:21;8.23;;;4.25;;
20832;SDS011;56075;51.264;7.150;2023-07-08T07:54:55;12.07;;;4.13;;
20832;SDS011;56075;51.264;7.150;2023-07-08T07:57:35;8.85;;;4.20;;
20832;SDS011;56075;51.264;7.150;2023-07-08T08:00:12;8.43;;;3.95;;
20832;SDS011;56075;51.264;7.150;2023-07-08T08:02:51;9.15;;;4.28;;
20832;SDS011;56075;51.264;7.150;2023-07-08T08:05:23;7.97;;;4.30;;
20832;SDS011;56075;51.264;7.150;2023-07-08T08:07:55;8.68;;;4.90;;
20832;SDS011;56075;51.264;7.150;2023-07-08T08:10:30;10.18;;;4.55;;
20832;SDS011;56075;51.264;7.150;2023-07-08T08:13:53;8.48;;;4.53;;
20832;SDS011;56075;51.264;7.150;2023-07-08T08:16:50;8.10;;;4.38;;
20832;SDS011;56075;51.264;7.150;2023-07-08T08:19:58;10.77;;;4.63;;
20832;SDS011;56075;51.264;7.150;2023-07-08T08:22:37;9.10;;;4.40;;
20832;SDS011;56075;51.264;7.150;2023-07-08T08:28:55;8.38;;;3.90;;
20832;SDS011;56075;51.264;7.150;2023-07-08T08:31:33;10.27;;;4.22;;
20832;SDS011;56075;51.264;7.150;2023-07-08T08:34:37;7.57;;;4.00;;
20832;SDS011;56075;51.264;7.150;2023-07-08T08:41:15;6.65;;;3.75;;
20832;SDS011;56075;51.264;7.150;2023-07-08T08:44:19;12.38;;;3.95;;
20832;SDS011;56075;51.264;7.150;2023-07-08T08:51:06;9.35;;;4.32;;
20832;SDS011;56075;51.264;7.150;2023-07-08T08:53:43;7.15;;;4.50;;
20832;SDS011;56075;51.264;7.150;2023-07-08T08:56:30;8.50;;;3.88;;
20832;SDS011;56075;51.264;7.150;2023-07-08T08:59:55;6.47;;;3.63;;
20832;SDS011;56075;51.264;7.150;2023-07-08T09:02:38;7.82;;;3.78;;
20832;SDS011;56075;51.264;7.150;2023-07-08T09:05:32;7.50;;;3.20;;
20832;SDS011;56075;51.264;7.150;2023-07-08T09:08:08;5.97;;;3.10;;
20832;SDS011;56075;51.264;7.150;2023-07-08T09:10:55;6.85;;;3.22;;
20832;SDS011;56075;51.264;7.150;2023-07-08T09:13:35;6.32;;;3.30;;
20832;SDS011;56075;51.264;7.150;2023-07-08T09:20:17;5.50;;;3.08;;
20832;SDS011;56075;51.264;7.150;2023-07-08T09:28:40;7.53;;;3.42;;
20832;SDS011;56075;51.264;7.150;2023-07-08T09:31:20;5.88;;;3.17;;
20832;SDS011;56075;51.264;7.150;2023-07-08T09:34:04;5.75;;;3.00;;
20832;SDS011;56075;51.264;7.150;2023-07-08T09:36:42;6.18;;;3.20;;
20832;SDS011;56075;51.264;7.150;2023-07-08T09:39:16;7.32;;;3.10;;
20832;SDS011;56075;51.264;7.150;2023-07-08T09:41:50;5.57;;;3.20;;
20832;SDS011;56075;51.264;7.150;2023-07-08T09:44:22;8.00;;;3.40;;
20832;SDS011;56075;51.264;7.150;2023-07-08T09:46:57;6.40;;;3.30;;
20832;SDS011;56075;51.264;7.150;2023-07-08T09:49:33;5.82;;;2.92;;
20832;SDS011;56075;51.264;7.150;2023-07-08T09:52:05;6.45;;;2.95;;
20832;SDS011;56075;51.264;7.150;2023-07-08T09:54:36;6.47;;;3.22;;
20832;SDS011;56075;51.264;7.150;2023-07-08T10:00:10;10.82;;;3.28;;
20832;SDS011;56075;51.264;7.150;2023-07-08T10:02:56;7.50;;;3.05;;
20832;SDS011;56075;51.264;7.150;2023-07-08T10:05:31;5.05;;;2.97;;
20832;SDS011;56075;51.264;7.150;2023-07-08T10:08:14;8.18;;;3.45;;
20832;SDS011;56075;51.264;7.150;2023-07-08T10:10:58;6.95;;;3.25;;
20832;SDS011;56075;51.264;7.150;2023-07-08T10:13:41;7.25;;;3.72;;
20832;SDS011;56075;51.264;7.150;2023-07-08T10:16:21;4.38;;;2.90;;
20832;SDS011;56075;51.264;7.150;2023-07-08T10:18:56;5.85;;;2.78;;
20832;SDS011;56075;51.264;7.150;2023-07-08T10:21:36;5.57;;;3.10;;
20832;SDS011;56075;51.264;7.150;2023-07-08T10:27:39;5.85;;;3.00;;
20832;SDS011;56075;51.264;7.150;2023-07-08T10:33:33;7.18;;;2.72;;
20832;SDS011;56075;51.264;7.150;2023-07-08T10:39:49;7.32;;;2.72;;
20832;SDS011;56075;51.264;7.150;2023-07-08T10:42:55;8.60;;;2.88;;
20832;SDS011;56075;51.264;7.150;2023-07-08T10:45:31;6.65;;;3.53;;
20832;SDS011;56075;51.264;7.150;2023-07-08T10:56:34;5.45;;;2.83;;
20832;SDS011;56075;51.264;7.150;2023-07-08T11:05:41;6.57;;;3.03;;
20832;SDS011;56075;51.264;7.150;2023-07-08T11:08:27;7.35;;;3.10;;
20832;SDS011;56075;51.264;7.150;2023-07-08T11:11:11;5.18;;;2.85;;
20832;SDS011;56075;51.264;7.150;2023-07-08T11:21:40;7.22;;;2.97;;
20832;SDS011;56075;51.264;7.150;2023-07-08T11:24:49;6.45;;;2.60;;
20832;SDS011;56075;51.264;7.150;2023-07-08T11:27:43;4.38;;;2.38;;
20832;SDS011;56075;51.264;7.150;2023-07-08T11:30:26;5.97;;;2.70;;
20832;SDS011;56075;51.264;7.150;2023-07-08T11:33:13;6.75;;;2.85;;
20832;SDS011;56075;51.264;7.150;2023-07-08T11:35:51;5.72;;;2.42;;
20832;SDS011;56075;51.264;7.150;2023-07-08T11:38:35;5.05;;;2.67;;
20832;SDS011;56075;51.264;7.150;2023-07-08T11:41:36;5.65;;;2.60;;
20832;SDS011;56075;51.264;7.150;2023-07-08T11:44:46;5.18;;;2.55;;
20832;SDS011;56075;51.264;7.150;2023-07-08T12:07:21;4.20;;;2.58;;
20832;SDS011;56075;51.264;7.150;2023-07-08T12:10:33;6.18;;;2.90;;
20832;SDS011;56075;51.264;7.150;2023-07-08T12:13:11;5.15;;;2.55;;
20832;SDS011;56075;51.264;7.150;2023-07-08T12:15:45;5.97;;;2.72;;
20832;SDS011;56075;51.264;7.150;2023-07-08T12:20:56;5.53;;;2.80;;
20832;SDS011;56075;51.264;7.150;2023-07-08T12:23:29;6.90;;;2.90;;
20832;SDS011;56075;51.264;7.150;2023-07-08T12:26:01;6.72;;;2.70;;
20832;SDS011;56075;51.264;7.150;2023-07-08T12:28:36;4.28;;;2.30;;
20832;SDS011;56075;51.264;7.150;2023-07-08T12:31:15;6.20;;;2.78;;
20832;SDS011;56075;51.264;7.150;2023-07-08T12:33:50;6.38;;;2.80;;
20832;SDS011;56075;51.264;7.150;2023-07-08T12:36:22;4.00;;;2.42;;
20832;SDS011;56075;51.264;7.150;2023-07-08T12:38:57;7.07;;;3.03;;
20832;SDS011;56075;51.264;7.150;2023-07-08T12:41:33;5.57;;;2.90;;
20832;SDS011;56075;51.264;7.150;2023-07-08T12:44:07;5.03;;;2.63;;
20832;SDS011;56075;51.264;7.150;2023-07-08T12:46:52;4.70;;;2.65;;
20832;SDS011;56075;51.264;7.150;2023-07-08T12:49:25;5.18;;;2.75;;
20832;SDS011;56075;51.264;7.150;2023-07-08T12:51:57;6.22;;;2.55;;
20832;SDS011;56075;51.264;7.150;2023-07-08T12:54:28;6.82;;;2.72;;
20832;SDS011;56075;51.264;7.150;2023-07-08T12:57:00;5.47;;;2.45;;
20832;SDS011;56075;51.264;7.150;2023-07-08T12:59:32;4.20;;;2.45;;
20832;SDS011;56075;51.264;7.150;2023-07-08T13:02:04;5.35;;;2.42;;
20832;SDS011;56075;51.264;7.150;2023-07-08T13:04:43;6.38;;;2.78;;
20832;SDS011;56075;51.264;7.150;2023-07-08T13:07:22;5.65;;;2.50;;
20832;SDS011;56075;51.264;7.150;2023-07-08T13:09:59;6.28;;;2.90;;
20832;SDS011;56075;51.264;7.150;2023-07-08T13:12:32;8.40;;;3.05;;
20832;SDS011;56075;51.264;7.150;2023-07-08T13:15:10;7.15;;;3.13;;
20832;SDS011;56075;51.264;7.150;2023-07-08T13:17:49;6.28;;;2.70;;
20832;SDS011;56075;51.264;7.150;2023-07-08T13:20:21;6.18;;;2.40;;
20832;SDS011;56075;51.264;7.150;2023-07-08T13:22:58;6.05;;;2.90;;
20832;SDS011;56075;51.264;7.150;2023-07-08T13:25:31;5.63;;;2.85;;
20832;SDS011;56075;51.264;7.150;2023-07-08T13:30:49;4.93;;;2.70;;
20832;SDS011;56075;51.264;7.150;2023-07-08T13:33:23;6.75;;;2.75;;
20832;SDS011;56075;51.264;7.150;2023-07-08T13:35:54;6.18;;;2.78;;
20832;SDS011;56075;51.264;7.150;2023-07-08T13:38:31;4.95;;;2.85;;
20832;SDS011;56075;51.264;7.150;2023-07-08T13:41:04;4.20;;;2.42;;
20832;SDS011;56075;51.264;7.150;2023-07-08T13:43:38;7.00;;;3.00;;
20832;SDS011;56075;51.264;7.150;2023-07-08T13:46:30;5.55;;;2.80;;
20832;SDS011;56075;51.264;7.150;2023-07-08T13:54:59;5.50;;;2.50;;
20832;SDS011;56075;51.264;7.150;2023-07-08T13:57:34;5.15;;;2.78;;
20832;SDS011;56075;51.264;7.150;2023-07-08T14:00:08;5.35;;;2.67;;
20832;SDS011;56075;51.264;7.150;2023-07-08T14:02:44;6.38;;;2.92;;
20832;SDS011;56075;51.264;7.150;2023-07-08T14:05:16;5.60;;;2.95;;
20832;SDS011;56075;51.264;7.150;2023-07-08T14:07:50;4.68;;;2.70;;
20832;SDS011;56075;51.264;7.150;2023-07-08T14:10:22;6.93;;;2.85;;
20832;SDS011;56075;51.264;7.150;2023-07-08T14:12:53;8.20;;;3.15;;
20832;SDS011;56075;51.264;7.150;2023-07-08T14:15:24;5.57;;;2.80;;
20832;SDS011;56075;51.264;7.150;2023-07-08T14:17:55;5.68;;;3.00;;
20832;SDS011;56075;51.264;7.150;2023-07-08T14:20:29;7.18;;;3.45;;
20832;SDS011;56075;51.264;7.150;2023-07-08T14:23:00;5.63;;;3.03;;
20832;SDS011;56075;51.264;7.150;2023-07-08T14:25:31;4.70;;;3.17;;
20832;SDS011;56075;51.264;7.150;2023-07-08T14:28:02;5.60;;;3.00;;
20832;SDS011;56075;51.264;7.150;2023-07-08T14:30:40;8.52;;;3.30;;
20832;SDS011;56075;51.264;7.150;2023-07-08T14:33:14;5.53;;;3.00;;
20832;SDS011;56075;51.264;7.150;2023-07-08T14:35:46;6.65;;;3.15;;
20832;SDS011;56075;51.264;7.150;2023-07-08T14:38:17;4.97;;;2.95;;
20832;SDS011;56075;51.264;7.150;2023-07-08T14:40:49;5.95;;;3.25;;
20832;SDS011;56075;51.264;7.150;2023-07-08T14:43:27;6.47;;;3.22;;
20832;SDS011;56075;51.264;7.150;2023-07-08T14:46:00;6.78;;;3.33;;
20832;SDS011;56075;51.264;7.150;2023-07-08T14:48:34;5.57;;;3.40;;
20832;SDS011;56075;51.264;7.150;2023-07-08T14:51:05;5.35;;;3.20;;
20832;SDS011;56075;51.264;7.150;2023-07-08T14:53:36;7.88;;;3.45;;
20832;SDS011;56075;51.264;7.150;2023-07-08T14:56:14;5.82;;;3.08;;
20832;SDS011;56075;51.264;7.150;2023-07-08T14:58:46;8.43;;;3.17;;
20832;SDS011;56075;51.264;7.150;2023-07-08T15:01:19;8.65;;;3.20;;
20832;SDS011;56075;51.264;7.150;2023-07-08T15:03:51;8.23;;;3.05;;
20832;SDS011;56075;51.264;7.150;2023-07-08T15:06:23;5.45;;;3.35;;
20832;SDS011;56075;51.264;7.150;2023-07-08T15:08:54;9.02;;;3.30;;
20832;SDS011;56075;51.264;7.150;2023-07-08T15:11:25;7.57;;;3.17;;
20832;SDS011;56075;51.264;7.150;2023-07-08T15:13:57;5.95;;;3.20;;
20832;SDS011;56075;51.264;7.150;2023-07-08T15:16:29;6.97;;;3.20;;
20832;SDS011;56075;51.264;7.150;2023-07-08T15:19:00;7.72;;;3.30;;
20832;SDS011;56075;51.264;7.150;2023-07-08T15:21:31;5.65;;;3.28;;
20832;SDS011;56075;51.264;7.150;2023-07-08T15:24:02;7.38;;;3.45;;
20832;SDS011;56075;51.264;7.150;2023-07-08T15:26:33;8.35;;;3.20;;
20832;SDS011;56075;51.264;7.150;2023-07-08T15:29:05;7.97;;;3.42;;
20832;SDS011;56075;51.264;7.150;2023-07-08T15:31:41;5.45;;;3.38;;
20832;SDS011;56075;51.264;7.150;2023-07-08T15:34:14;6.90;;;3.53;;
20832;SDS011;56075;51.264;7.150;2023-07-08T15:36:46;8.80;;;3.80;;
20832;SDS011;56075;51.264;7.150;2023-07-08T15:39:18;8.32;;;3.45;;
20832;SDS011;56075;51.264;7.150;2023-07-08T15:41:49;7.63;;;3.67;;
20832;SDS011;56075;51.264;7.150;2023-07-08T15:44:21;7.60;;;4.03;;
20832;SDS011;56075;51.264;7.150;2023-07-08T15:46:52;8.95;;;4.18;;
20832;SDS011;56075;51.264;7.150;2023-07-08T15:49:24;6.38;;;3.88;;
20832;SDS011;56075;51.264;7.150;2023-07-08T15:51:58;5.85;;;3.80;;
20832;SDS011;56075;51.264;7.150;2023-07-08T15:54:30;7.07;;;3.83;;
20832;SDS011;56075;51.264;7.150;2023-07-08T15:57:03;7.07;;;3.33;;
20832;SDS011;56075;51.264;7.150;2023-07-08T15:59:36;6.72;;;3.45;;
20832;SDS011;56075;51.264;7.150;2023-07-08T16:02:15;7.72;;;3.30;;
20832;SDS011;56075;51.264;7.150;2023-07-08T16:04:55;6.25;;;3.20;;
20832;SDS011;56075;51.264;7.150;2023-07-08T16:07:26;6.20;;;3.30;;
20832;SDS011;56075;51.264;7.150;2023-07-08T16:09:57;5.90;;;3.42;;
20832;SDS011;56075;51.264;7.150;2023-07-08T16:12:28;6.53;;;3.50;;
20832;SDS011;56075;51.264;7.150;2023-07-08T16:14:59;5.90;;;3.33;;
20832;SDS011;56075;51.264;7.150;2023-07-08T16:17:33;7.28;;;3.30;;
20832;SDS011;56075;51.264;7.150;2023-07-08T16:20:25;8.90;;;4.65;;
20832;SDS011;56075;51.264;7.150;2023-07-08T16:22:58;7.95;;;3.40;;
20832;SDS011;56075;51.264;7.150;2023-07-08T16:25:30;5.53;;;3.10;;
20832;SDS011;56075;51.264;7.150;2023-07-08T16:28:05;8.73;;;3.40;;
